Stetson, ME (04488)

5:40 AM EST on February 11, 2016 (GMT -0500)
Stonyvale Farms | | Change Station
CLOSE
Current Station
Personal Weather Station
Location: Exeter, ME
Elevation: 269 ft
Nearby Weather Stations

Elev 269 ft 44.95 °N, 69.12 °W | Updated 3 minutes ago

Overcast
Overcast
21.9 °F
Feels Like 22 °F
N
3.0
Wind Variable Wind from NW
Gusts 9.0 mph

Today
High -- | Low -- °F
--% Chance of Precip.
Yesterday
High -- | Low -- °F
Precip. -- in
Pressure 29.59 in
Visibility 10.0 miles
Clouds Scattered Clouds 2700 ft
Overcast 4000 ft
Windchill 22 °F
Dew Point 16 °F
Humidity 78%
Rainfall 0.00 in
Snow Depth Not available.
6:43 AM 4:58 PM
Waxing Crescent, 11% visible
SPECI KBGR 111011Z 32012KT 10SM SCT027 OVC040 M05/M10 A2959 RMK AO2 T10501100
Pressure 29.59 in
Visibility 10.0 miles
Clouds Scattered Clouds 2700 ft
Overcast 4000 ft
Windchill 22 °F
Dew Point 16 °F
Humidity 78%
Rainfall 0.00 in
Snow Depth Not available.
6:43 AM 4:58 PM
Waxing Crescent, 11% visible
SPECI KBGR 111011Z 32012KT 10SM SCT027 OVC040 M05/M10 A2959 RMK AO2 T10501100

10-Day Weather Forecast

Almanac

Astronomy

Feb. 11, 2016 Rise Set
Actual Time
Civil Twilight
Nautical Twilight
Astronomical Twilight
Moon
Length of Visible Light
Length of Day
Tomorrow will be .
, % of the Moon is Illuminated

Today's Extremes

State Highs State Lows

Community

WunderPhotos

Upload Photos

1,892,030 photos uploaded!

WunderBlog® & News

Nearby

Air Quality

  Air Quality AQ Index Pollutant
Not available.

Snow Depth

Station Depth Elevation

Earthquake Activity

City Distance Mag. Time & Date
Minimum magnitude displayed is 2.5.

Coastal Water Temperatures

Place Temperature

Stations

Nearby Weather Stations

Station Location Temp. Windchill Dew Point Humidity Wind Precip. Elev Updated Type
                   

Watches & Warnings

There are currently no watches in effect.